Terminal Aerodrome Forecast
Issued by NWS

Home | Current Version | Previous Version | Graphics & Text | Print | Product List | Glossary On
Versions: 1 2 3 4 5 6 7 8 9 10 11 12 13 14 15 16 17 18 19 20 21 22 23 24 25 26
000
FTUS43 KABR 130539
TAFATY
TAF
KATY 130539Z 1306/1406 24014KT P6SM BKN200
     FM130900 31020G30KT P6SM VCSH BKN070
     FM131200 32026G37KT P6SM BKN030
     FM131500 33029G42KT P6SM BKN015
     FM132300 33018G29KT P6SM BKN020=

USA.gov is the U.S. government's official web portal to all federal, state and local government web resources and services.